sensor_id;sensor_type;location;lat;lon;timestamp;P1;durP1;ratioP1;P2;durP2;ratioP2
21480;SDS011;10902;48.158;8.634;2023-11-19T00:02:17;17.25;;;11.45;;
21480;SDS011;10902;48.158;8.634;2023-11-19T00:05:03;16.42;;;11.45;;
21480;SDS011;10902;48.158;8.634;2023-11-19T00:07:49;16.90;;;11.57;;
21480;SDS011;10902;48.158;8.634;2023-11-19T00:10:35;18.27;;;13.38;;
21480;SDS011;10902;48.158;8.634;2023-11-19T00:13:20;20.23;;;13.55;;
21480;SDS011;10902;48.158;8.634;2023-11-19T00:16:08;17.40;;;12.32;;
21480;SDS011;10902;48.158;8.634;2023-11-19T00:18:54;19.02;;;12.50;;
21480;SDS011;10902;48.158;8.634;2023-11-19T00:21:40;17.23;;;11.38;;
21480;SDS011;10902;48.158;8.634;2023-11-19T00:24:26;15.70;;;10.77;;
21480;SDS011;10902;48.158;8.634;2023-11-19T00:27:11;16.70;;;10.95;;
21480;SDS011;10902;48.158;8.634;2023-11-19T00:29:57;15.80;;;10.98;;
21480;SDS011;10902;48.158;8.634;2023-11-19T00:32:43;15.95;;;10.95;;
21480;SDS011;10902;48.158;8.634;2023-11-19T00:35:30;17.88;;;10.80;;
21480;SDS011;10902;48.158;8.634;2023-11-19T00:38:28;16.50;;;11.18;;
21480;SDS011;10902;48.158;8.634;2023-11-19T00:41:14;17.08;;;10.55;;
21480;SDS011;10902;48.158;8.634;2023-11-19T00:44:01;15.60;;;10.55;;
21480;SDS011;10902;48.158;8.634;2023-11-19T00:46:47;16.02;;;10.23;;
21480;SDS011;10902;48.158;8.634;2023-11-19T00:49:32;15.70;;;9.85;;
21480;SDS011;10902;48.158;8.634;2023-11-19T00:52:18;16.55;;;10.63;;
21480;SDS011;10902;48.158;8.634;2023-11-19T00:55:04;17.38;;;10.88;;
21480;SDS011;10902;48.158;8.634;2023-11-19T00:57:50;15.50;;;9.93;;
21480;SDS011;10902;48.158;8.634;2023-11-19T01:00:36;15.90;;;10.38;;
21480;SDS011;10902;48.158;8.634;2023-11-19T01:03:21;14.93;;;9.55;;
21480;SDS011;10902;48.158;8.634;2023-11-19T01:06:07;14.38;;;9.35;;
21480;SDS011;10902;48.158;8.634;2023-11-19T01:08:53;15.15;;;9.45;;
21480;SDS011;10902;48.158;8.634;2023-11-19T01:11:39;15.75;;;9.70;;
21480;SDS011;10902;48.158;8.634;2023-11-19T01:14:25;15.85;;;9.90;;
21480;SDS011;10902;48.158;8.634;2023-11-19T01:17:11;17.90;;;10.73;;
21480;SDS011;10902;48.158;8.634;2023-11-19T01:19:57;16.33;;;10.52;;
21480;SDS011;10902;48.158;8.634;2023-11-19T01:22:42;16.45;;;10.93;;
21480;SDS011;10902;48.158;8.634;2023-11-19T01:25:28;17.55;;;10.73;;
21480;SDS011;10902;48.158;8.634;2023-11-19T01:28:14;16.23;;;9.77;;
21480;SDS011;10902;48.158;8.634;2023-11-19T01:30:59;16.60;;;9.90;;
21480;SDS011;10902;48.158;8.634;2023-11-19T01:34:03;15.85;;;9.55;;
21480;SDS011;10902;48.158;8.634;2023-11-19T01:36:48;16.52;;;9.38;;
21480;SDS011;10902;48.158;8.634;2023-11-19T01:39:34;14.55;;;8.38;;
21480;SDS011;10902;48.158;8.634;2023-11-19T01:42:20;14.57;;;9.23;;
21480;SDS011;10902;48.158;8.634;2023-11-19T01:45:05;15.20;;;8.73;;
21480;SDS011;10902;48.158;8.634;2023-11-19T01:47:53;13.43;;;8.52;;
21480;SDS011;10902;48.158;8.634;2023-11-19T01:50:39;14.90;;;8.95;;
21480;SDS011;10902;48.158;8.634;2023-11-19T01:53:24;14.48;;;8.93;;
21480;SDS011;10902;48.158;8.634;2023-11-19T01:56:12;15.23;;;9.25;;
21480;SDS011;10902;48.158;8.634;2023-11-19T01:58:59;12.98;;;8.55;;
21480;SDS011;10902;48.158;8.634;2023-11-19T02:01:45;13.85;;;8.80;;
21480;SDS011;10902;48.158;8.634;2023-11-19T02:04:31;16.98;;;10.18;;
21480;SDS011;10902;48.158;8.634;2023-11-19T02:07:17;16.40;;;9.55;;
21480;SDS011;10902;48.158;8.634;2023-11-19T02:10:04;18.73;;;10.55;;
21480;SDS011;10902;48.158;8.634;2023-11-19T02:12:50;15.88;;;9.20;;
21480;SDS011;10902;48.158;8.634;2023-11-19T02:15:36;16.92;;;9.65;;
21480;SDS011;10902;48.158;8.634;2023-11-19T02:21:14;12.73;;;8.40;;
21480;SDS011;10902;48.158;8.634;2023-11-19T02:24:01;15.82;;;8.73;;
21480;SDS011;10902;48.158;8.634;2023-11-19T02:26:53;19.75;;;8.68;;
21480;SDS011;10902;48.158;8.634;2023-11-19T02:29:47;15.05;;;8.68;;
21480;SDS011;10902;48.158;8.634;2023-11-19T02:32:32;14.18;;;8.48;;
21480;SDS011;10902;48.158;8.634;2023-11-19T02:35:18;14.13;;;8.05;;
21480;SDS011;10902;48.158;8.634;2023-11-19T02:38:03;15.75;;;9.10;;
21480;SDS011;10902;48.158;8.634;2023-11-19T02:40:49;15.50;;;8.88;;
21480;SDS011;10902;48.158;8.634;2023-11-19T02:43:36;14.63;;;8.60;;
21480;SDS011;10902;48.158;8.634;2023-11-19T02:46:22;16.25;;;9.50;;
21480;SDS011;10902;48.158;8.634;2023-11-19T02:49:13;14.65;;;8.63;;
21480;SDS011;10902;48.158;8.634;2023-11-19T02:51:59;16.60;;;8.98;;
21480;SDS011;10902;48.158;8.634;2023-11-19T02:54:44;12.35;;;7.80;;
21480;SDS011;10902;48.158;8.634;2023-11-19T02:57:30;14.35;;;7.72;;
21480;SDS011;10902;48.158;8.634;2023-11-19T03:00:17;13.07;;;7.53;;
21480;SDS011;10902;48.158;8.634;2023-11-19T03:03:04;9.18;;;5.93;;
21480;SDS011;10902;48.158;8.634;2023-11-19T03:06:05;7.97;;;4.60;;
21480;SDS011;10902;48.158;8.634;2023-11-19T03:08:51;11.10;;;5.50;;
21480;SDS011;10902;48.158;8.634;2023-11-19T03:11:48;10.05;;;6.30;;
21480;SDS011;10902;48.158;8.634;2023-11-19T03:14:34;9.50;;;5.68;;
21480;SDS011;10902;48.158;8.634;2023-11-19T03:17:20;9.52;;;5.55;;
21480;SDS011;10902;48.158;8.634;2023-11-19T03:20:06;11.02;;;5.80;;
21480;SDS011;10902;48.158;8.634;2023-11-19T03:22:56;9.25;;;6.03;;
21480;SDS011;10902;48.158;8.634;2023-11-19T03:25:42;7.53;;;4.55;;
21480;SDS011;10902;48.158;8.634;2023-11-19T03:28:28;8.85;;;4.93;;
21480;SDS011;10902;48.158;8.634;2023-11-19T03:31:14;10.32;;;5.13;;
21480;SDS011;10902;48.158;8.634;2023-11-19T03:34:00;8.85;;;5.03;;
21480;SDS011;10902;48.158;8.634;2023-11-19T03:36:45;7.20;;;4.10;;
21480;SDS011;10902;48.158;8.634;2023-11-19T03:39:31;6.55;;;3.67;;
21480;SDS011;10902;48.158;8.634;2023-11-19T03:42:16;6.15;;;3.53;;
21480;SDS011;10902;48.158;8.634;2023-11-19T03:45:04;6.95;;;3.70;;
21480;SDS011;10902;48.158;8.634;2023-11-19T03:47:57;5.80;;;3.00;;
21480;SDS011;10902;48.158;8.634;2023-11-19T03:51:33;6.90;;;2.75;;
21480;SDS011;10902;48.158;8.634;2023-11-19T03:54:19;4.45;;;2.22;;
21480;SDS011;10902;48.158;8.634;2023-11-19T03:57:08;3.15;;;1.25;;
21480;SDS011;10902;48.158;8.634;2023-11-19T03:59:57;3.13;;;1.10;;
21480;SDS011;10902;48.158;8.634;2023-11-19T04:02:43;2.42;;;0.80;;
21480;SDS011;10902;48.158;8.634;2023-11-19T04:05:29;2.20;;;0.80;;
21480;SDS011;10902;48.158;8.634;2023-11-19T04:08:20;2.17;;;0.63;;
21480;SDS011;10902;48.158;8.634;2023-11-19T04:11:05;1.73;;;0.57;;
21480;SDS011;10902;48.158;8.634;2023-11-19T04:13:51;2.08;;;0.55;;
21480;SDS011;10902;48.158;8.634;2023-11-19T04:16:37;2.33;;;0.68;;
21480;SDS011;10902;48.158;8.634;2023-11-19T04:19:22;1.98;;;0.68;;
21480;SDS011;10902;48.158;8.634;2023-11-19T04:22:09;1.88;;;0.50;;
21480;SDS011;10902;48.158;8.634;2023-11-19T04:24:55;1.48;;;0.50;;
21480;SDS011;10902;48.158;8.634;2023-11-19T04:27:43;1.27;;;0.40;;
21480;SDS011;10902;48.158;8.634;2023-11-19T04:30:28;2.35;;;0.50;;
21480;SDS011;10902;48.158;8.634;2023-11-19T04:33:16;0.73;;;0.30;;
21480;SDS011;10902;48.158;8.634;2023-11-19T04:36:02;1.52;;;0.57;;
21480;SDS011;10902;48.158;8.634;2023-11-19T04:38:48;1.20;;;0.43;;
21480;SDS011;10902;48.158;8.634;2023-11-19T04:41:33;1.33;;;0.40;;
21480;SDS011;10902;48.158;8.634;2023-11-19T04:44:19;1.23;;;0.40;;
21480;SDS011;10902;48.158;8.634;2023-11-19T04:47:05;0.90;;;0.30;;
21480;SDS011;10902;48.158;8.634;2023-11-19T04:49:51;1.10;;;0.40;;
21480;SDS011;10902;48.158;8.634;2023-11-19T04:52:39;1.90;;;0.40;;
21480;SDS011;10902;48.158;8.634;2023-11-19T04:55:25;0.88;;;0.40;;
21480;SDS011;10902;48.158;8.634;2023-11-19T04:58:11;1.27;;;0.30;;
21480;SDS011;10902;48.158;8.634;2023-11-19T05:00:56;1.52;;;0.57;;
21480;SDS011;10902;48.158;8.634;2023-11-19T05:03:42;0.70;;;0.30;;
21480;SDS011;10902;48.158;8.634;2023-11-19T05:06:31;1.42;;;0.30;;
21480;SDS011;10902;48.158;8.634;2023-11-19T05:09:17;0.80;;;0.30;;
21480;SDS011;10902;48.158;8.634;2023-11-19T05:12:03;1.00;;;0.40;;
21480;SDS011;10902;48.158;8.634;2023-11-19T05:14:48;0.75;;;0.30;;
21480;SDS011;10902;48.158;8.634;2023-11-19T05:17:35;2.53;;;0.30;;
21480;SDS011;10902;48.158;8.634;2023-11-19T05:20:22;1.30;;;0.30;;
21480;SDS011;10902;48.158;8.634;2023-11-19T05:23:07;0.80;;;0.30;;
21480;SDS011;10902;48.158;8.634;2023-11-19T05:25:53;1.02;;;0.25;;
21480;SDS011;10902;48.158;8.634;2023-11-19T05:28:38;0.80;;;0.30;;
21480;SDS011;10902;48.158;8.634;2023-11-19T05:31:36;0.68;;;0.22;;
21480;SDS011;10902;48.158;8.634;2023-11-19T05:34:22;0.90;;;0.22;;
21480;SDS011;10902;48.158;8.634;2023-11-19T05:37:07;1.02;;;0.30;;
21480;SDS011;10902;48.158;8.634;2023-11-19T05:39:54;0.73;;;0.20;;
21480;SDS011;10902;48.158;8.634;2023-11-19T05:42:40;1.38;;;0.25;;
21480;SDS011;10902;48.158;8.634;2023-11-19T05:45:26;0.90;;;0.40;;
21480;SDS011;10902;48.158;8.634;2023-11-19T05:48:12;2.13;;;0.30;;
21480;SDS011;10902;48.158;8.634;2023-11-19T05:50:57;2.88;;;0.98;;
21480;SDS011;10902;48.158;8.634;2023-11-19T05:53:43;0.73;;;0.20;;
21480;SDS011;10902;48.158;8.634;2023-11-19T05:56:32;0.90;;;0.20;;
21480;SDS011;10902;48.158;8.634;2023-11-19T05:59:18;0.47;;;0.20;;
21480;SDS011;10902;48.158;8.634;2023-11-19T06:02:04;1.58;;;0.30;;
21480;SDS011;10902;48.158;8.634;2023-11-19T06:04:49;0.35;;;0.20;;
21480;SDS011;10902;48.158;8.634;2023-11-19T06:07:35;3.30;;;1.20;;
21480;SDS011;10902;48.158;8.634;2023-11-19T06:10:21;2.35;;;0.32;;
21480;SDS011;10902;48.158;8.634;2023-11-19T06:13:09;1.13;;;0.35;;
21480;SDS011;10902;48.158;8.634;2023-11-19T06:15:59;1.20;;;0.30;;
21480;SDS011;10902;48.158;8.634;2023-11-19T06:18:45;0.60;;;0.20;;
21480;SDS011;10902;48.158;8.634;2023-11-19T06:21:31;0.85;;;0.30;;
21480;SDS011;10902;48.158;8.634;2023-11-19T06:24:16;1.42;;;0.30;;
21480;SDS011;10902;48.158;8.634;2023-11-19T06:27:02;0.50;;;0.20;;
21480;SDS011;10902;48.158;8.634;2023-11-19T06:29:48;0.88;;;0.17;;
21480;SDS011;10902;48.158;8.634;2023-11-19T06:32:41;0.70;;;0.22;;
21480;SDS011;10902;48.158;8.634;2023-11-19T06:35:27;0.55;;;0.20;;
21480;SDS011;10902;48.158;8.634;2023-11-19T06:38:20;0.73;;;0.20;;
21480;SDS011;10902;48.158;8.634;2023-11-19T06:41:08;1.10;;;0.35;;
21480;SDS011;10902;48.158;8.634;2023-11-19T06:43:54;1.30;;;0.20;;
21480;SDS011;10902;48.158;8.634;2023-11-19T06:46:40;0.95;;;0.25;;
21480;SDS011;10902;48.158;8.634;2023-11-19T06:49:25;0.50;;;0.20;;
21480;SDS011;10902;48.158;8.634;2023-11-19T06:52:11;1.48;;;0.20;;
21480;SDS011;10902;48.158;8.634;2023-11-19T06:54:56;0.63;;;0.20;;
21480;SDS011;10902;48.158;8.634;2023-11-19T06:57:42;1.73;;;0.35;;
21480;SDS011;10902;48.158;8.634;2023-11-19T07:00:28;0.43;;;0.10;;
21480;SDS011;10902;48.158;8.634;2023-11-19T07:03:14;0.80;;;0.20;;
21480;SDS011;10902;48.158;8.634;2023-11-19T07:06:01;0.95;;;0.30;;
21480;SDS011;10902;48.158;8.634;2023-11-19T07:08:46;0.65;;;0.20;;
21480;SDS011;10902;48.158;8.634;2023-11-19T07:11:32;0.65;;;0.20;;
21480;SDS011;10902;48.158;8.634;2023-11-19T07:14:18;1.05;;;0.30;;
21480;SDS011;10902;48.158;8.634;2023-11-19T07:17:04;0.80;;;0.30;;
21480;SDS011;10902;48.158;8.634;2023-11-19T07:19:49;0.68;;;0.20;;
21480;SDS011;10902;48.158;8.634;2023-11-19T07:22:50;1.02;;;0.30;;
21480;SDS011;10902;48.158;8.634;2023-11-19T07:25:36;0.57;;;0.20;;
21480;SDS011;10902;48.158;8.634;2023-11-19T07:28:22;1.52;;;0.40;;
21480;SDS011;10902;48.158;8.634;2023-11-19T07:31:07;1.73;;;0.30;;
21480;SDS011;10902;48.158;8.634;2023-11-19T07:33:53;1.83;;;0.50;;
21480;SDS011;10902;48.158;8.634;2023-11-19T07:36:39;2.10;;;0.45;;
21480;SDS011;10902;48.158;8.634;2023-11-19T07:39:37;2.90;;;0.32;;
21480;SDS011;10902;48.158;8.634;2023-11-19T07:42:25;1.88;;;0.55;;
21480;SDS011;10902;48.158;8.634;2023-11-19T07:45:11;1.83;;;0.40;;
21480;SDS011;10902;48.158;8.634;2023-11-19T07:47:57;1.73;;;0.50;;
21480;SDS011;10902;48.158;8.634;2023-11-19T07:50:42;2.33;;;0.50;;
21480;SDS011;10902;48.158;8.634;2023-11-19T07:53:28;1.35;;;0.25;;
21480;SDS011;10902;48.158;8.634;2023-11-19T07:56:19;1.05;;;0.40;;
21480;SDS011;10902;48.158;8.634;2023-11-19T07:59:05;1.27;;;0.40;;
21480;SDS011;10902;48.158;8.634;2023-11-19T08:01:51;1.67;;;0.40;;
21480;SDS011;10902;48.158;8.634;2023-11-19T08:04:37;1.85;;;0.30;;
21480;SDS011;10902;48.158;8.634;2023-11-19T08:07:24;1.05;;;0.20;;
21480;SDS011;10902;48.158;8.634;2023-11-19T08:10:10;1.15;;;0.25;;
21480;SDS011;10902;48.158;8.634;2023-11-19T08:12:56;2.47;;;0.32;;
21480;SDS011;10902;48.158;8.634;2023-11-19T08:15:42;0.82;;;0.20;;
21480;SDS011;10902;48.158;8.634;2023-11-19T08:18:28;0.68;;;0.30;;
21480;SDS011;10902;48.158;8.634;2023-11-19T08:21:13;1.95;;;0.43;;
21480;SDS011;10902;48.158;8.634;2023-11-19T08:24:00;1.25;;;0.30;;
21480;SDS011;10902;48.158;8.634;2023-11-19T08:26:45;1.50;;;0.40;;
21480;SDS011;10902;48.158;8.634;2023-11-19T08:29:31;0.80;;;0.30;;
21480;SDS011;10902;48.158;8.634;2023-11-19T08:32:16;1.50;;;0.40;;
21480;SDS011;10902;48.158;8.634;2023-11-19T08:35:11;1.85;;;0.40;;
21480;SDS011;10902;48.158;8.634;2023-11-19T08:37:56;0.50;;;0.20;;
21480;SDS011;10902;48.158;8.634;2023-11-19T08:40:42;1.13;;;0.20;;
21480;SDS011;10902;48.158;8.634;2023-11-19T08:43:27;0.82;;;0.20;;
21480;SDS011;10902;48.158;8.634;2023-11-19T08:46:13;1.10;;;0.20;;
21480;SDS011;10902;48.158;8.634;2023-11-19T08:48:59;0.85;;;0.17;;
21480;SDS011;10902;48.158;8.634;2023-11-19T08:51:45;1.15;;;0.30;;
21480;SDS011;10902;48.158;8.634;2023-11-19T08:54:31;0.93;;;0.20;;
21480;SDS011;10902;48.158;8.634;2023-11-19T08:57:18;1.70;;;0.40;;
21480;SDS011;10902;48.158;8.634;2023-11-19T09:00:04;2.28;;;0.20;;
21480;SDS011;10902;48.158;8.634;2023-11-19T09:02:52;0.30;;;0.20;;
21480;SDS011;10902;48.158;8.634;2023-11-19T09:05:38;1.23;;;0.20;;
21480;SDS011;10902;48.158;8.634;2023-11-19T09:08:24;2.35;;;0.30;;
21480;SDS011;10902;48.158;8.634;2023-11-19T09:11:10;1.35;;;0.30;;
21480;SDS011;10902;48.158;8.634;2023-11-19T09:13:55;1.40;;;0.30;;
21480;SDS011;10902;48.158;8.634;2023-11-19T09:16:41;2.03;;;0.40;;
21480;SDS011;10902;48.158;8.634;2023-11-19T09:19:26;1.63;;;0.30;;
21480;SDS011;10902;48.158;8.634;2023-11-19T09:22:12;0.90;;;0.20;;
21480;SDS011;10902;48.158;8.634;2023-11-19T09:25:09;1.42;;;0.40;;
21480;SDS011;10902;48.158;8.634;2023-11-19T09:27:56;1.23;;;0.30;;
21480;SDS011;10902;48.158;8.634;2023-11-19T09:30:41;2.10;;;0.60;;
21480;SDS011;10902;48.158;8.634;2023-11-19T09:33:27;1.08;;;0.30;;
21480;SDS011;10902;48.158;8.634;2023-11-19T09:36:12;1.02;;;0.40;;
21480;SDS011;10902;48.158;8.634;2023-11-19T09:39:01;2.17;;;0.40;;
21480;SDS011;10902;48.158;8.634;2023-11-19T09:41:47;1.40;;;0.30;;
21480;SDS011;10902;48.158;8.634;2023-11-19T09:44:34;0.85;;;0.25;;
21480;SDS011;10902;48.158;8.634;2023-11-19T09:47:22;1.88;;;0.50;;
21480;SDS011;10902;48.158;8.634;2023-11-19T09:50:08;1.63;;;0.30;;
21480;SDS011;10902;48.158;8.634;2023-11-19T09:52:55;1.70;;;0.45;;
21480;SDS011;10902;48.158;8.634;2023-11-19T09:55:41;0.95;;;0.38;;
21480;SDS011;10902;48.158;8.634;2023-11-19T09:58:27;1.60;;;0.30;;
21480;SDS011;10902;48.158;8.634;2023-11-19T10:01:13;1.33;;;0.38;;
21480;SDS011;10902;48.158;8.634;2023-11-19T10:04:05;1.90;;;0.40;;
21480;SDS011;10902;48.158;8.634;2023-11-19T10:06:52;1.60;;;0.40;;
21480;SDS011;10902;48.158;8.634;2023-11-19T10:09:37;1.65;;;0.55;;
21480;SDS011;10902;48.158;8.634;2023-11-19T10:12:23;3.67;;;0.52;;
21480;SDS011;10902;48.158;8.634;2023-11-19T10:15:08;2.25;;;0.57;;
21480;SDS011;10902;48.158;8.634;2023-11-19T10:18:11;1.80;;;0.50;;
21480;SDS011;10902;48.158;8.634;2023-11-19T10:20:59;3.28;;;0.93;;
21480;SDS011;10902;48.158;8.634;2023-11-19T10:23:51;1.50;;;0.50;;
21480;SDS011;10902;48.158;8.634;2023-11-19T10:26:49;1.80;;;0.40;;
21480;SDS011;10902;48.158;8.634;2023-11-19T10:29:38;1.25;;;0.30;;
21480;SDS011;10902;48.158;8.634;2023-11-19T10:32:23;1.40;;;0.25;;
21480;SDS011;10902;48.158;8.634;2023-11-19T10:35:12;0.98;;;0.20;;
21480;SDS011;10902;48.158;8.634;2023-11-19T10:37:59;2.58;;;0.47;;
21480;SDS011;10902;48.158;8.634;2023-11-19T10:40:45;2.00;;;0.40;;
21480;SDS011;10902;48.158;8.634;2023-11-19T10:43:44;1.15;;;0.20;;
21480;SDS011;10902;48.158;8.634;2023-11-19T10:46:36;0.98;;;0.30;;
21480;SDS011;10902;48.158;8.634;2023-11-19T10:49:25;1.30;;;0.30;;
21480;SDS011;10902;48.158;8.634;2023-11-19T10:52:11;1.40;;;0.35;;
21480;SDS011;10902;48.158;8.634;2023-11-19T10:55:01;2.30;;;0.40;;
21480;SDS011;10902;48.158;8.634;2023-11-19T10:57:50;0.95;;;0.30;;
21480;SDS011;10902;48.158;8.634;2023-11-19T11:00:44;1.05;;;0.20;;
21480;SDS011;10902;48.158;8.634;2023-11-19T11:03:33;1.52;;;0.47;;
21480;SDS011;10902;48.158;8.634;2023-11-19T11:06:24;2.20;;;0.40;;
21480;SDS011;10902;48.158;8.634;2023-11-19T11:09:12;1.75;;;0.40;;
21480;SDS011;10902;48.158;8.634;2023-11-19T11:12:00;1.55;;;0.20;;
21480;SDS011;10902;48.158;8.634;2023-11-19T11:14:46;1.17;;;0.13;;
21480;SDS011;10902;48.158;8.634;2023-11-19T11:17:33;1.08;;;0.10;;
21480;SDS011;10902;48.158;8.634;2023-11-19T11:20:19;0.38;;;0.00;;
21480;SDS011;10902;48.158;8.634;2023-11-19T11:23:28;0.70;;;0.10;;
21480;SDS011;10902;48.158;8.634;2023-11-19T11:26:35;0.47;;;0.10;;
21480;SDS011;10902;48.158;8.634;2023-11-19T11:29:48;0.70;;;0.10;;
21480;SDS011;10902;48.158;8.634;2023-11-19T11:33:06;0.20;;;0.10;;
21480;SDS011;10902;48.158;8.634;2023-11-19T11:38:57;0.88;;;0.10;;
21480;SDS011;10902;48.158;8.634;2023-11-19T11:41:45;0.40;;;0.10;;
21480;SDS011;10902;48.158;8.634;2023-11-19T11:48:04;1.38;;;0.20;;
21480;SDS011;10902;48.158;8.634;2023-11-19T11:50:57;1.33;;;0.20;;
21480;SDS011;10902;48.158;8.634;2023-11-19T11:53:43;1.08;;;0.25;;
21480;SDS011;10902;48.158;8.634;2023-11-19T11:56:33;1.10;;;0.30;;
21480;SDS011;10902;48.158;8.634;2023-11-19T11:59:23;1.15;;;0.28;;
21480;SDS011;10902;48.158;8.634;2023-11-19T12:02:09;0.57;;;0.10;;
21480;SDS011;10902;48.158;8.634;2023-11-19T12:04:56;0.43;;;0.10;;
21480;SDS011;10902;48.158;8.634;2023-11-19T12:07:44;1.42;;;0.10;;
21480;SDS011;10902;48.158;8.634;2023-11-19T12:10:44;0.85;;;0.10;;
21480;SDS011;10902;48.158;8.634;2023-11-19T12:13:47;1.75;;;0.43;;
21480;SDS011;10902;48.158;8.634;2023-11-19T12:16:47;0.88;;;0.20;;
21480;SDS011;10902;48.158;8.634;2023-11-19T12:19:32;1.17;;;0.20;;
21480;SDS011;10902;48.158;8.634;2023-11-19T12:22:18;0.70;;;0.10;;
21480;SDS011;10902;48.158;8.634;2023-11-19T12:25:07;0.95;;;0.20;;
21480;SDS011;10902;48.158;8.634;2023-11-19T12:27:54;1.98;;;0.20;;
21480;SDS011;10902;48.158;8.634;2023-11-19T12:30:40;0.80;;;0.10;;
21480;SDS011;10902;48.158;8.634;2023-11-19T12:33:25;0.73;;;0.20;;
21480;SDS011;10902;48.158;8.634;2023-11-19T12:36:11;0.68;;;0.10;;
21480;SDS011;10902;48.158;8.634;2023-11-19T12:38:56;1.20;;;0.10;;
21480;SDS011;10902;48.158;8.634;2023-11-19T12:41:55;1.67;;;0.20;;
21480;SDS011;10902;48.158;8.634;2023-11-19T12:44:54;0.45;;;0.10;;
21480;SDS011;10902;48.158;8.634;2023-11-19T12:47:41;1.10;;;0.10;;
21480;SDS011;10902;48.158;8.634;2023-11-19T12:53:49;0.77;;;0.10;;
21480;SDS011;10902;48.158;8.634;2023-11-19T12:56:35;1.65;;;0.43;;
21480;SDS011;10902;48.158;8.634;2023-11-19T12:59:22;1.45;;;0.30;;
21480;SDS011;10902;48.158;8.634;2023-11-19T13:02:08;0.70;;;0.17;;
21480;SDS011;10902;48.158;8.634;2023-11-19T13:04:54;1.45;;;0.15;;
21480;SDS011;10902;48.158;8.634;2023-11-19T13:07:39;1.42;;;0.10;;
21480;SDS011;10902;48.158;8.634;2023-11-19T13:10:25;0.93;;;0.10;;
21480;SDS011;10902;48.158;8.634;2023-11-19T13:13:11;1.02;;;0.20;;
21480;SDS011;10902;48.158;8.634;2023-11-19T13:16:03;0.60;;;0.10;;
21480;SDS011;10902;48.158;8.634;2023-11-19T13:18:54;0.73;;;0.10;;
21480;SDS011;10902;48.158;8.634;2023-11-19T13:21:39;0.40;;;0.05;;
21480;SDS011;10902;48.158;8.634;2023-11-19T13:24:25;0.75;;;0.10;;
21480;SDS011;10902;48.158;8.634;2023-11-19T13:27:11;1.10;;;0.20;;
21480;SDS011;10902;48.158;8.634;2023-11-19T13:29:58;0.60;;;0.10;;
21480;SDS011;10902;48.158;8.634;2023-11-19T13:32:44;0.63;;;0.10;;
21480;SDS011;10902;48.158;8.634;2023-11-19T13:35:31;0.73;;;0.10;;
21480;SDS011;10902;48.158;8.634;2023-11-19T13:38:16;1.40;;;0.28;;
21480;SDS011;10902;48.158;8.634;2023-11-19T13:41:05;0.98;;;0.10;;
21480;SDS011;10902;48.158;8.634;2023-11-19T13:43:51;0.88;;;0.10;;
21480;SDS011;10902;48.158;8.634;2023-11-19T13:46:36;1.00;;;0.10;;
21480;SDS011;10902;48.158;8.634;2023-11-19T13:49:22;0.75;;;0.20;;
21480;SDS011;10902;48.158;8.634;2023-11-19T13:52:08;0.50;;;0.17;;
21480;SDS011;10902;48.158;8.634;2023-11-19T13:54:53;1.50;;;0.30;;
21480;SDS011;10902;48.158;8.634;2023-11-19T13:57:57;0.73;;;0.20;;
21480;SDS011;10902;48.158;8.634;2023-11-19T14:00:42;1.67;;;0.30;;
21480;SDS011;10902;48.158;8.634;2023-11-19T14:03:28;0.47;;;0.10;;
21480;SDS011;10902;48.158;8.634;2023-11-19T14:06:14;0.70;;;0.10;;
21480;SDS011;10902;48.158;8.634;2023-11-19T14:08:59;0.47;;;0.20;;
21480;SDS011;10902;48.158;8.634;2023-11-19T14:11:45;0.77;;;0.13;;
21480;SDS011;10902;48.158;8.634;2023-11-19T14:14:30;0.93;;;0.20;;
21480;SDS011;10902;48.158;8.634;2023-11-19T14:17:16;0.50;;;0.10;;
21480;SDS011;10902;48.158;8.634;2023-11-19T14:20:09;1.13;;;0.30;;
21480;SDS011;10902;48.158;8.634;2023-11-19T14:22:58;0.88;;;0.20;;
21480;SDS011;10902;48.158;8.634;2023-11-19T14:25:45;5.82;;;0.40;;
21480;SDS011;10902;48.158;8.634;2023-11-19T14:28:30;0.95;;;0.25;;
21480;SDS011;10902;48.158;8.634;2023-11-19T14:31:16;0.75;;;0.20;;
21480;SDS011;10902;48.158;8.634;2023-11-19T14:34:02;1.33;;;0.30;;
21480;SDS011;10902;48.158;8.634;2023-11-19T14:36:47;0.90;;;0.20;;
21480;SDS011;10902;48.158;8.634;2023-11-19T14:39:34;1.63;;;0.20;;
21480;SDS011;10902;48.158;8.634;2023-11-19T14:42:19;1.48;;;0.20;;
21480;SDS011;10902;48.158;8.634;2023-11-19T14:45:05;1.38;;;0.22;;
21480;SDS011;10902;48.158;8.634;2023-11-19T14:47:52;1.00;;;0.20;;
21480;SDS011;10902;48.158;8.634;2023-11-19T14:50:39;2.03;;;0.30;;
21480;SDS011;10902;48.158;8.634;2023-11-19T14:53:24;1.25;;;0.20;;
21480;SDS011;10902;48.158;8.634;2023-11-19T14:56:10;1.02;;;0.20;;
21480;SDS011;10902;48.158;8.634;2023-11-19T14:58:57;2.00;;;0.30;;
21480;SDS011;10902;48.158;8.634;2023-11-19T15:01:46;1.27;;;0.40;;
21480;SDS011;10902;48.158;8.634;2023-11-19T15:04:32;0.65;;;0.20;;
21480;SDS011;10902;48.158;8.634;2023-11-19T15:07:19;1.08;;;0.25;;
21480;SDS011;10902;48.158;8.634;2023-11-19T15:10:04;1.83;;;0.30;;
21480;SDS011;10902;48.158;8.634;2023-11-19T15:12:54;2.15;;;0.43;;
21480;SDS011;10902;48.158;8.634;2023-11-19T15:15:40;2.72;;;0.40;;
21480;SDS011;10902;48.158;8.634;2023-11-19T15:18:25;3.72;;;0.57;;
21480;SDS011;10902;48.158;8.634;2023-11-19T15:21:11;1.17;;;0.45;;
21480;SDS011;10902;48.158;8.634;2023-11-19T15:23:58;1.40;;;0.38;;
21480;SDS011;10902;48.158;8.634;2023-11-19T15:26:43;2.80;;;0.32;;
21480;SDS011;10902;48.158;8.634;2023-11-19T15:29:29;2.50;;;0.50;;
21480;SDS011;10902;48.158;8.634;2023-11-19T15:32:15;2.47;;;0.60;;
21480;SDS011;10902;48.158;8.634;2023-11-19T15:35:01;2.33;;;0.40;;
21480;SDS011;10902;48.158;8.634;2023-11-19T15:37:47;1.75;;;0.38;;
21480;SDS011;10902;48.158;8.634;2023-11-19T15:40:33;3.15;;;0.60;;
21480;SDS011;10902;48.158;8.634;2023-11-19T15:43:19;1.48;;;0.40;;
21480;SDS011;10902;48.158;8.634;2023-11-19T15:46:06;2.03;;;0.50;;
21480;SDS011;10902;48.158;8.634;2023-11-19T15:48:52;2.20;;;0.50;;
21480;SDS011;10902;48.158;8.634;2023-11-19T15:51:38;1.45;;;0.40;;
21480;SDS011;10902;48.158;8.634;2023-11-19T15:54:23;3.40;;;0.57;;
21480;SDS011;10902;48.158;8.634;2023-11-19T15:57:09;2.45;;;0.55;;
21480;SDS011;10902;48.158;8.634;2023-11-19T15:59:54;2.83;;;0.70;;
21480;SDS011;10902;48.158;8.634;2023-11-19T16:02:40;3.53;;;0.70;;
21480;SDS011;10902;48.158;8.634;2023-11-19T16:05:34;3.33;;;0.75;;
21480;SDS011;10902;48.158;8.634;2023-11-19T16:08:19;4.32;;;0.88;;
21480;SDS011;10902;48.158;8.634;2023-11-19T16:11:11;1.90;;;0.57;;
21480;SDS011;10902;48.158;8.634;2023-11-19T16:13:58;2.58;;;0.70;;
21480;SDS011;10902;48.158;8.634;2023-11-19T16:16:43;2.10;;;0.65;;
21480;SDS011;10902;48.158;8.634;2023-11-19T16:19:29;4.85;;;0.98;;
21480;SDS011;10902;48.158;8.634;2023-11-19T16:22:15;2.78;;;0.75;;
21480;SDS011;10902;48.158;8.634;2023-11-19T16:25:00;3.03;;;0.82;;
21480;SDS011;10902;48.158;8.634;2023-11-19T16:27:47;3.60;;;0.80;;
21480;SDS011;10902;48.158;8.634;2023-11-19T16:30:33;2.78;;;0.90;;
21480;SDS011;10902;48.158;8.634;2023-11-19T16:33:18;3.15;;;0.70;;
21480;SDS011;10902;48.158;8.634;2023-11-19T16:36:04;2.60;;;0.80;;
21480;SDS011;10902;48.158;8.634;2023-11-19T16:38:51;4.03;;;0.98;;
21480;SDS011;10902;48.158;8.634;2023-11-19T16:41:36;4.10;;;0.70;;
21480;SDS011;10902;48.158;8.634;2023-11-19T16:44:23;3.97;;;0.82;;
21480;SDS011;10902;48.158;8.634;2023-11-19T16:47:08;2.88;;;0.90;;
21480;SDS011;10902;48.158;8.634;2023-11-19T16:49:54;4.35;;;1.02;;
21480;SDS011;10902;48.158;8.634;2023-11-19T16:52:40;4.05;;;1.08;;
21480;SDS011;10902;48.158;8.634;2023-11-19T16:55:26;3.35;;;0.70;;
21480;SDS011;10902;48.158;8.634;2023-11-19T16:58:12;3.60;;;1.13;;